CheckWX is a tool to help pilots better visualize weather data.  It is not intended as a substitute for an official pre-flight weather briefing.

06:12:11 UTC

FLHN METAR
Livingstone Nkum
Livingstone Nkum, Zambia
Current

16 hours ago

FLHN 041400Z 09014KT CAVOK 25/06 Q1024
Observed
Jul-4 @ 14:00 UTC
Wind
  • 090° at 14 KTS
Visibility
10,000+ meters
Flight Rules
VFR
Cloud Levels
  • Clear skies
Temperature
25°C / 77°F
Dewpoint
C / 43°F
Humidity
30%
Altimeter
30.24" Hg
Pressure
1023.92 hPa
Previous

22 hours ago

FLHN 040800Z 11012KT CAVOK 21/06 Q1027
Observed
Jul-4 @ 08:00 UTC
Wind
  • 110° at 12 KTS
Visibility
10,000+ meters
Flight Rules
VFR
Cloud Levels
  • Clear skies
Temperature
21°C / 70°F
Dewpoint
C / 43°F
Humidity
38%
Altimeter
30.32" Hg
Pressure
1026.92 hPa